createdAt,value
2023-05-21T00:00:39.747Z,0.0000
2023-05-21T00:01:42.453Z,0.0000
2023-05-21T00:02:44.924Z,0.0000
2023-05-21T00:03:46.911Z,0.0000
2023-05-21T00:04:48.698Z,0.0000
2023-05-21T00:06:51.869Z,0.0000
2023-05-21T00:07:53.534Z,0.0000
2023-05-21T00:08:55.210Z,0.0000
2023-05-21T00:09:57.520Z,0.0000
2023-05-21T00:10:59.845Z,0.0000
2023-05-21T00:12:02.217Z,0.0000
2023-05-21T00:13:04.735Z,0.0000
2023-05-21T00:14:06.405Z,0.0000
2023-05-21T00:15:08.290Z,0.0000
2023-05-21T00:16:10.164Z,0.0000
2023-05-21T00:17:12.418Z,0.0000
2023-05-21T00:18:14.760Z,0.0000
2023-05-21T00:19:17.957Z,0.0000
2023-05-21T00:26:29.185Z,0.0000
2023-05-21T00:27:31.702Z,0.0000
2023-05-21T00:28:33.355Z,0.0000
2023-05-21T00:29:35.010Z,0.0000
2023-05-21T00:30:37.829Z,0.0000
2023-05-21T00:31:39.532Z,0.0000
2023-05-21T00:32:41.240Z,0.0000
2023-05-21T00:33:44.009Z,0.0000
2023-05-21T00:35:44.367Z,0.0000
2023-05-21T00:36:46.019Z,0.0000
2023-05-21T00:37:47.688Z,0.0000
2023-05-21T00:38:51.037Z,0.0000
2023-05-21T00:40:52.763Z,0.0000
2023-05-21T00:41:54.847Z,0.0000
2023-05-21T00:43:58.322Z,0.0000
2023-05-21T00:45:00.008Z,0.0000
2023-05-21T00:48:04.620Z,0.0000
2023-05-21T00:49:06.301Z,0.0000
2023-05-21T00:50:07.953Z,0.0000
2023-05-21T00:51:09.591Z,0.0000
2023-05-21T00:52:10.164Z,0.0000
2023-05-21T00:53:11.807Z,0.0000
2023-05-21T00:54:14.546Z,0.0000
2023-05-21T00:55:16.203Z,0.0000
2023-05-21T00:56:17.849Z,0.0000
2023-05-21T00:57:19.518Z,0.0000
2023-05-21T00:58:21.154Z,0.0000
2023-05-21T00:59:22.833Z,0.0000
2023-05-21T01:00:24.506Z,0.0000
2023-05-21T01:01:26.182Z,0.0000
2023-05-21T01:02:27.823Z,0.0000
2023-05-21T01:03:29.611Z,0.0000
2023-05-21T01:04:31.302Z,0.0000
2023-05-21T01:05:33.089Z,0.0000
2023-05-21T01:06:34.837Z,0.0000
2023-05-21T01:07:36.510Z,0.0000
2023-05-21T01:08:38.193Z,0.0000
2023-05-21T01:10:41.318Z,0.0000
2023-05-21T01:11:44.157Z,0.0000
2023-05-21T01:20:57.144Z,173.4548
2023-05-21T01:21:59.485Z,173.7276
2023-05-21T01:23:01.787Z,173.0459
2023-05-21T01:24:04.210Z,173.6368
2023-05-21T01:25:05.952Z,174.1823
2023-05-21T01:26:08.278Z,173.6822
2023-05-21T01:27:10.676Z,173.9550
2023-05-21T01:28:12.955Z,173.9096
2023-05-21T01:29:14.646Z,174.3640
2023-05-21T01:30:16.263Z,173.4550
2023-05-21T01:31:18.597Z,173.2732
2023-05-21T01:32:20.219Z,173.4095
2023-05-21T01:34:23.408Z,173.3186
2023-05-21T01:35:25.152Z,172.7278
2023-05-21T01:36:26.850Z,173.5003
2023-05-21T01:37:29.131Z,173.1823
2023-05-21T01:38:31.438Z,174.1368
2023-05-21T01:39:33.741Z,173.4549
2023-05-21T01:40:36.040Z,173.5004
2023-05-21T01:41:37.674Z,174.0004
2023-05-21T01:42:40.266Z,172.9093
2023-05-21T01:43:42.647Z,173.2731
2023-05-21T01:44:45.262Z,173.5913
2023-05-21T01:45:47.704Z,172.7277
2023-05-21T01:46:49.390Z,173.8640
2023-05-21T01:47:51.888Z,173.2732
2023-05-21T01:48:53.517Z,173.1823
2023-05-21T01:49:56.053Z,173.5912
2023-05-21T01:50:58.448Z,174.4549
2023-05-21T01:52:00.777Z,172.3187
2023-05-21T01:53:03.199Z,174.0912
2023-05-21T01:54:05.190Z,172.7278
2023-05-21T01:55:07.575Z,174.7731
2023-05-21T01:56:09.204Z,173.6823
2023-05-21T01:57:11.162Z,0.0000
2023-05-21T01:59:14.335Z,0.0000
2023-05-21T02:00:15.996Z,0.0000
2023-05-21T02:01:17.762Z,0.0000
2023-05-21T02:02:20.158Z,0.0000
2023-05-21T02:03:22.748Z,0.0000
2023-05-21T02:04:25.089Z,0.0000
2023-05-21T02:05:27.065Z,0.0000
2023-05-21T02:07:30.903Z,0.0000
2023-05-21T02:08:32.555Z,0.0000
2023-05-21T02:09:34.251Z,0.0000
2023-05-21T02:11:38.223Z,173.9095
2023-05-21T02:12:40.933Z,173.6821
2023-05-21T02:13:42.577Z,173.9094
2023-05-21T02:14:44.825Z,173.9095
2023-05-21T02:15:47.086Z,173.2277
2023-05-21T02:16:49.448Z,174.8185
2023-05-21T02:17:51.194Z,174.0458
2023-05-21T02:18:52.852Z,173.5459
2023-05-21T02:19:54.470Z,173.6823
2023-05-21T02:20:56.117Z,173.9094
2023-05-21T02:21:57.816Z,173.0912
2023-05-21T02:22:59.421Z,173.5914
2023-05-21T02:24:02.399Z,173.3640
2023-05-21T02:25:07.226Z,173.7623
2023-05-21T02:32:13.077Z,173.0459
2023-05-21T02:33:14.779Z,173.2276
2023-05-21T02:34:16.451Z,173.5912
2023-05-21T02:35:18.097Z,174.5004
2023-05-21T02:36:19.768Z,172.7731
2023-05-21T02:37:21.454Z,173.5003
2023-05-21T02:38:23.240Z,174.2732
2023-05-21T02:39:24.940Z,172.7278
2023-05-21T02:40:26.589Z,173.7277
2023-05-21T02:41:28.241Z,173.0459
2023-05-21T02:42:30.532Z,173.8640
2023-05-21T02:43:32.874Z,0.0000
2023-05-21T02:44:34.551Z,0.0000
2023-05-21T02:45:36.456Z,0.0000
2023-05-21T02:46:38.830Z,0.0000
2023-05-21T02:47:41.448Z,173.9549
2023-05-21T02:48:43.848Z,172.4549
2023-05-21T02:49:46.573Z,173.1368
2023-05-21T02:50:48.194Z,174.4549
2023-05-21T02:51:49.859Z,173.7277
2023-05-21T02:52:51.519Z,174.0458
2023-05-21T02:53:53.440Z,172.9096
2023-05-21T02:54:55.101Z,173.5459
2023-05-21T02:56:59.738Z,173.4549
2023-05-21T03:03:06.843Z,173.8186
2023-05-21T03:04:09.083Z,173.7277
2023-05-21T03:05:10.717Z,173.5914
2023-05-21T03:06:12.367Z,173.1822
2023-05-21T03:08:16.162Z,173.9550
2023-05-21T03:09:17.867Z,174.1822
2023-05-21T03:10:19.553Z,174.1821
2023-05-21T03:12:23.970Z,173.5004
2023-05-21T03:13:25.635Z,173.7276
2023-05-21T03:14:27.309Z,173.2733
2023-05-21T03:15:28.952Z,173.5457
2023-05-21T03:16:30.606Z,172.9550
2023-05-21T03:18:34.697Z,173.6368
2023-05-21T03:21:39.409Z,173.5913
2023-05-21T03:22:42.406Z,0.0000
2023-05-21T03:25:45.051Z,0.0000
2023-05-21T03:26:47.388Z,0.0000
2023-05-21T03:27:49.752Z,0.0000
2023-05-21T03:28:51.403Z,0.0000
2023-05-21T03:29:53.102Z,0.0000
2023-05-21T03:30:54.897Z,0.0000
2023-05-21T03:31:56.714Z,0.0000
2023-05-21T03:32:58.457Z,0.0000
2023-05-21T03:34:00.697Z,0.0000
2023-05-21T03:35:02.389Z,0.0000
2023-05-21T03:36:04.082Z,0.0000
2023-05-21T03:38:07.331Z,0.0000
2023-05-21T03:39:09.061Z,0.0000
2023-05-21T03:40:10.763Z,0.0000
2023-05-21T03:41:12.467Z,0.0000
2023-05-21T03:43:15.698Z,0.0000
2023-05-21T03:44:17.421Z,0.0000
2023-05-21T03:45:20.243Z,0.0000
2023-05-21T03:55:35.691Z,0.0000
2023-05-21T03:56:37.475Z,173.5004
2023-05-21T03:57:39.147Z,174.0004
2023-05-21T03:58:40.860Z,173.4095
2023-05-21T03:59:42.510Z,174.5913
2023-05-21T04:00:44.198Z,174.2731
2023-05-21T04:01:45.890Z,173.6823
2023-05-21T04:02:47.688Z,173.5004
2023-05-21T04:03:50.214Z,174.0004
2023-05-21T04:04:52.220Z,173.8186
2023-05-21T04:05:53.910Z,173.7278
2023-05-21T04:06:55.565Z,173.6821
2023-05-21T04:07:57.838Z,173.4549
2023-05-21T04:09:00.359Z,173.7277
2023-05-21T04:10:03.175Z,173.5916
2023-05-21T04:11:04.873Z,174.4095
2023-05-21T04:12:06.574Z,173.8641
2023-05-21T04:13:08.260Z,0.0000
2023-05-21T04:15:11.795Z,0.0000
2023-05-21T04:16:13.550Z,0.0000
2023-05-21T04:18:16.797Z,0.0000
2023-05-21T04:19:18.609Z,0.0000
2023-05-21T04:20:20.594Z,0.0000
2023-05-21T04:22:24.524Z,0.0000
2023-05-21T04:23:27.186Z,0.0000
2023-05-21T04:24:28.909Z,0.0000
2023-05-21T04:25:30.654Z,0.0000
2023-05-21T04:26:32.336Z,0.0000
2023-05-21T04:27:34.806Z,0.0000
2023-05-21T04:28:37.108Z,0.0000
2023-05-21T04:29:38.809Z,0.0000
2023-05-21T04:30:40.516Z,0.0000
2023-05-21T04:31:42.964Z,0.0000
2023-05-21T04:32:44.757Z,0.0000
2023-05-21T04:33:46.420Z,0.0000
2023-05-21T04:34:48.128Z,0.0000
2023-05-21T04:35:50.899Z,0.0000
2023-05-21T04:44:03.968Z,173.5911
2023-05-21T04:45:06.360Z,173.4096
2023-05-21T04:46:08.034Z,173.2732
2023-05-21T04:47:09.784Z,173.6368
2023-05-21T04:48:12.323Z,172.4092
2023-05-21T04:49:14.054Z,173.4550
2023-05-21T04:50:15.706Z,0.0000
2023-05-21T04:51:18.060Z,173.9550
2023-05-21T04:52:19.759Z,0.0000
2023-05-21T04:53:21.461Z,0.0000
2023-05-21T04:54:23.170Z,0.0000
2023-05-21T04:55:25.665Z,0.0000
2023-05-21T04:56:28.031Z,0.0000
2023-05-21T04:57:29.730Z,0.0000
2023-05-21T04:58:31.446Z,0.0000
2023-05-21T04:59:33.759Z,0.0000
2023-05-21T05:00:36.082Z,0.0000
2023-05-21T05:01:37.775Z,0.0000
2023-05-21T05:03:41.759Z,0.0000
2023-05-21T05:04:44.135Z,0.0000
2023-05-21T05:05:45.843Z,0.0000
2023-05-21T05:06:47.543Z,0.0000
2023-05-21T05:07:49.519Z,0.0000
2023-05-21T05:08:51.246Z,0.0000
2023-05-21T05:09:52.951Z,0.0000
2023-05-21T05:11:56.823Z,0.0000
2023-05-21T05:12:58.994Z,0.0000
2023-05-21T05:14:00.696Z,0.0000
2023-05-21T05:15:02.774Z,0.0000
2023-05-21T05:16:04.603Z,173.6824
2023-05-21T05:17:06.318Z,174.8186
2023-05-21T05:20:11.866Z,0.0000
2023-05-21T05:21:14.350Z,0.0000
2023-05-21T05:22:16.654Z,0.0000
2023-05-21T05:24:20.651Z,0.0000
2023-05-21T05:25:22.352Z,174.5458
2023-05-21T05:26:24.059Z,173.8186
2023-05-21T05:28:27.971Z,173.9549
2023-05-21T05:29:30.274Z,173.8186
2023-05-21T05:30:32.002Z,173.5005
2023-05-21T05:33:37.846Z,0.0000
2023-05-21T05:34:40.211Z,0.0000
2023-05-21T05:35:42.566Z,0.0000
2023-05-21T05:36:45.007Z,0.0000
2023-05-21T05:37:46.741Z,0.0000
2023-05-21T05:39:50.630Z,0.0000
2023-05-21T05:40:52.987Z,0.0000
2023-05-21T05:41:54.860Z,0.0000
2023-05-21T05:42:56.783Z,0.0000
2023-05-21T05:43:58.542Z,0.0000
2023-05-21T05:45:01.655Z,0.0000
2023-05-21T05:46:00.645Z,0.0000
2023-05-21T05:47:02.581Z,172.8183
2023-05-21T05:48:05.624Z,174.8186
2023-05-21T05:49:07.988Z,173.6368
2023-05-21T05:50:09.731Z,174.1369
2023-05-21T05:51:12.110Z,173.5912
2023-05-21T05:52:14.535Z,174.0004
2023-05-21T05:53:16.285Z,173.8186
2023-05-21T05:55:20.519Z,0.0000
2023-05-21T05:56:23.101Z,173.2278
2023-05-21T05:57:26.039Z,173.6367
2023-05-21T06:04:37.275Z,0.0000
2023-05-21T06:05:39.937Z,0.0000
2023-05-21T06:07:41.571Z,173.9550
2023-05-21T06:08:43.441Z,173.9550
2023-05-21T06:09:45.857Z,174.2278
2023-05-21T06:10:48.411Z,173.0458
2023-05-21T06:11:51.052Z,173.6823
2023-05-21T06:12:53.453Z,174.3642
2023-05-21T06:13:55.192Z,173.7278
2023-05-21T06:14:56.917Z,173.9550
2023-05-21T06:15:59.310Z,173.7277
2023-05-21T06:17:00.997Z,174.3186
2023-05-21T06:20:05.052Z,173.5006
2023-05-21T06:21:07.589Z,173.5004
2023-05-21T06:22:10.019Z,173.5459
2023-05-21T06:23:11.754Z,174.2733
2023-05-21T06:24:14.105Z,0.0000
2023-05-21T06:25:14.289Z,0.0000
2023-05-21T06:32:24.803Z,0.0000
2023-05-21T06:33:27.743Z,0.0000
2023-05-21T06:34:27.672Z,0.0000
2023-05-21T06:36:31.660Z,180.0192
2023-05-21T06:37:33.392Z,193.5004
2023-05-21T06:38:35.332Z,193.5914
2023-05-21T06:39:37.275Z,193.7731
2023-05-21T06:40:39.792Z,194.0911
2023-05-21T06:41:42.348Z,193.6369
2023-05-21T06:42:44.083Z,194.5004
2023-05-21T06:43:46.321Z,194.0459
2023-05-21T06:44:49.214Z,206.4748
2023-05-21T06:45:50.985Z,212.3185
2023-05-21T06:46:52.695Z,212.1368
2023-05-21T06:47:54.468Z,211.3642
2023-05-21T06:48:56.890Z,210.2278
2023-05-21T06:49:59.213Z,211.6826
2023-05-21T06:51:01.598Z,212.4097
2023-05-21T06:52:03.365Z,210.6367
2023-05-21T06:54:07.416Z,212.2732
2023-05-21T06:55:09.167Z,211.1819
2023-05-21T06:56:11.070Z,211.1366
2023-05-21T06:57:12.820Z,210.1367
2023-05-21T06:59:16.991Z,211.8638
2023-05-21T07:02:20.874Z,210.9096
2023-05-21T07:03:21.459Z,211.4765
2023-05-21T07:10:32.031Z,244.5911
2023-05-21T07:12:33.582Z,245.2276
2023-05-21T07:13:35.916Z,245.0914
2023-05-21T07:14:38.477Z,248.6107
2023-05-21T07:15:40.218Z,269.1821
2023-05-21T07:16:42.011Z,266.5911
2023-05-21T07:17:43.779Z,288.5956
2023-05-21T07:18:46.224Z,294.9550
2023-05-21T07:19:48.289Z,293.9554
2023-05-21T07:21:52.480Z,292.3641
2023-05-21T07:22:55.053Z,290.4557
2023-05-21T07:23:57.616Z,290.6824
2023-05-21T07:24:59.338Z,290.7284
2023-05-21T07:26:01.219Z,289.8646
2023-05-21T07:27:08.766Z,290.7281
2023-05-21T07:28:06.806Z,290.6508
2023-05-21T07:37:21.512Z,298.0919
2023-05-21T07:38:23.233Z,297.6827
2023-05-21T07:39:25.115Z,297.9555
2023-05-21T07:40:27.111Z,297.3639
2023-05-21T07:41:29.272Z,299.1376
2023-05-21T07:42:31.031Z,299.9099
2023-05-21T07:43:32.768Z,299.1372
2023-05-21T07:44:34.654Z,300.0463
2023-05-21T07:45:37.404Z,300.0926
2023-05-21T07:46:38.532Z,301.5246
2023-05-21T07:48:40.104Z,302.7284
2023-05-21T07:49:40.366Z,302.0962
2023-05-21T07:50:40.241Z,295.2635
2023-05-21T07:51:42.857Z,263.6823
2023-05-21T07:52:45.426Z,263.7729
2023-05-21T07:53:47.899Z,263.8640
2023-05-21T07:54:49.908Z,262.8636
2023-05-21T07:55:51.790Z,262.9549
2023-05-21T07:58:56.678Z,276.5915
2023-05-21T08:01:01.191Z,275.3643
2023-05-21T08:02:03.536Z,276.1829
2023-05-21T08:03:05.310Z,275.2282
2023-05-21T08:04:07.359Z,266.8188
2023-05-21T08:05:10.817Z,273.6252
2023-05-21T08:06:11.348Z,282.6196
2023-05-21T08:07:13.605Z,283.5919
2023-05-21T08:08:16.210Z,277.5900
2023-05-21T08:09:18.151Z,272.5465
2023-05-21T08:11:22.589Z,283.1376
2023-05-21T08:12:24.332Z,283.6827
2023-05-21T08:13:26.793Z,283.0919
2023-05-21T08:14:28.709Z,283.4555
2023-05-21T08:16:33.512Z,0.0000
2023-05-21T08:17:35.474Z,283.8641
2023-05-21T08:18:37.727Z,283.6368
2023-05-21T08:19:40.145Z,283.9099
2023-05-21T08:20:42.926Z,283.1825
2023-05-21T08:24:48.907Z,283.1373
2023-05-21T08:25:51.727Z,283.5461
2023-05-21T08:27:56.081Z,283.3641
2023-05-21T08:28:58.411Z,283.1823
2023-05-21T08:30:00.850Z,295.4213
2023-05-21T08:31:02.568Z,300.9103
2023-05-21T08:32:04.318Z,302.8191
2023-05-21T08:33:06.786Z,293.9470
2023-05-21T08:34:08.537Z,264.8187
2023-05-21T08:35:10.258Z,279.2980
2023-05-21T08:36:12.076Z,289.2734
2023-05-21T08:37:14.081Z,290.1828
2023-05-21T08:38:16.468Z,289.3647
2023-05-21T08:39:18.919Z,289.9098
2023-05-21T08:40:21.239Z,289.1826
2023-05-21T08:41:22.950Z,289.6373
2023-05-21T08:42:35.742Z,286.3651
2023-05-21T08:44:31.184Z,293.5008
2023-05-21T08:50:38.382Z,312.0919
2023-05-21T08:53:41.227Z,298.8192
2023-05-21T08:54:42.942Z,299.6825
2023-05-21T08:55:44.677Z,298.3648
2023-05-21T08:56:47.154Z,298.5020
2023-05-21T08:58:07.757Z,282.1303
2023-05-21T08:58:50.599Z,274.1343
2023-05-21T08:59:53.019Z,275.6359
2023-05-21T09:00:55.441Z,279.6828
2023-05-21T09:01:57.271Z,274.3188
2023-05-21T09:02:59.980Z,275.6830
2023-05-21T09:04:16.155Z,266.4112
2023-05-21T09:05:04.387Z,249.3497
2023-05-21T09:06:06.145Z,248.6822
2023-05-21T09:07:08.605Z,248.9550
2023-05-21T09:08:11.390Z,248.8641
2023-05-21T09:09:13.108Z,248.4552
2023-05-21T09:12:19.452Z,244.8642
2023-05-21T09:13:21.849Z,244.0004
2023-05-21T09:14:23.585Z,248.4549
2023-05-21T09:16:27.575Z,339.2734
2023-05-21T09:17:30.093Z,339.0918
2023-05-21T09:18:31.800Z,339.0464
2023-05-21T09:19:33.711Z,357.9815
2023-05-21T09:20:36.545Z,64.5909
2023-05-21T09:24:40.701Z,64.4545
2023-05-21T09:25:42.468Z,51.9010
2023-05-21T09:26:45.133Z,7.1268
2023-05-21T09:27:45.104Z,332.3402
2023-05-21T09:28:47.522Z,301.5438
2023-05-21T09:29:49.260Z,298.5921
2023-05-21T09:31:00.060Z,329.1404
2023-05-21T09:37:06.443Z,336.3188
2023-05-21T09:41:09.789Z,336.3645
2023-05-21T09:42:11.987Z,336.5918
2023-05-21T09:44:15.754Z,329.8954
2023-05-21T09:45:17.712Z,310.2301
2023-05-21T09:46:19.482Z,304.7733
2023-05-21T09:48:22.794Z,303.1382
2023-05-21T09:49:26.212Z,293.2280
2023-05-21T09:53:31.143Z,273.4556
2023-05-21T09:54:32.864Z,274.6365
2023-05-21T09:55:34.622Z,273.9555
2023-05-21T09:56:36.464Z,275.5010
2023-05-21T09:57:38.174Z,270.3646
2023-05-21T09:58:39.953Z,255.9131
2023-05-21T09:59:41.703Z,20.7357
2023-05-21T10:00:43.461Z,79.0876
2023-05-21T10:02:47.585Z,57.2727
2023-05-21T10:03:50.739Z,54.5935
2023-05-21T10:04:50.474Z,41.9998
2023-05-21T10:06:54.399Z,42.8636
2023-05-21T10:07:56.735Z,42.9545
2023-05-21T10:08:59.085Z,43.4545
2023-05-21T10:10:00.825Z,52.0938
2023-05-21T10:11:02.687Z,54.9545
2023-05-21T10:12:05.467Z,55.0909
2023-05-21T10:13:07.897Z,0.0000
2023-05-21T10:14:09.649Z,11.7082
2023-05-21T10:15:11.374Z,11.9034
2023-05-21T10:16:13.865Z,27.2587
2023-05-21T10:17:16.382Z,30.5248
2023-05-21T10:18:18.708Z,41.5840
2023-05-21T10:19:21.220Z,14.5000
2023-05-21T10:20:22.970Z,9.4180
2023-05-21T10:21:25.271Z,350.5749
2023-05-21T10:22:27.708Z,322.4556
2023-05-21T10:23:29.529Z,322.2736
2023-05-21T10:24:31.248Z,322.2738
2023-05-21T10:26:35.340Z,320.3192
2023-05-21T10:27:37.944Z,331.2373
2023-05-21T10:28:40.407Z,337.3643
2023-05-21T10:29:42.615Z,302.7924
2023-05-21T10:30:45.135Z,325.0692
2023-05-21T10:31:47.573Z,311.8644
2023-05-21T10:32:50.372Z,311.7734
2023-05-21T10:34:04.982Z,314.6667
2023-05-21T10:35:55.146Z,334.4073
2023-05-21T10:36:57.969Z,353.8810
2023-05-21T10:39:20.814Z,10.2727
2023-05-21T10:40:01.081Z,9.8571
2023-05-21T10:41:02.809Z,9.3636
2023-05-21T10:42:05.191Z,7.7273
2023-05-21T10:43:07.527Z,6.6364
2023-05-21T10:44:10.067Z,6.9091
2023-05-21T10:45:11.834Z,6.4545
2023-05-21T10:46:13.611Z,36.1335
2023-05-21T10:47:16.069Z,58.1385
2023-05-21T10:48:18.970Z,51.5000
2023-05-21T10:51:21.205Z,0.0000
2023-05-21T10:52:22.960Z,0.0000
2023-05-21T10:53:24.826Z,0.0000
2023-05-21T10:54:26.669Z,51.7273
2023-05-21T10:55:28.965Z,0.0000
2023-05-21T10:56:30.673Z,35.2121
2023-05-21T10:57:33.067Z,304.0049
2023-05-21T10:58:34.847Z,310.9097
2023-05-21T10:59:36.609Z,331.8058
2023-05-21T11:00:38.464Z,307.5341
2023-05-21T11:03:44.880Z,300.7280
2023-05-21T11:04:46.637Z,299.9553
2023-05-21T11:05:48.466Z,307.4440
2023-05-21T11:06:50.231Z,38.1364
2023-05-21T11:07:52.126Z,38.0454
2023-05-21T11:08:55.362Z,37.9091
2023-05-21T11:09:54.714Z,37.9524
2023-05-21T11:10:58.564Z,37.8636
2023-05-21T11:11:58.216Z,340.4706
2023-05-21T11:13:00.601Z,350.8905
2023-05-21T11:14:03.152Z,123.0804
2023-05-21T11:15:05.455Z,297.9202
2023-05-21T11:17:09.685Z,285.4559
2023-05-21T11:18:12.668Z,270.0106
2023-05-21T11:27:27.550Z,8.8185
2023-05-21T11:28:29.322Z,3.2250
2023-05-21T11:29:31.109Z,295.1534
2023-05-21T11:30:35.238Z,288.0457
2023-05-21T11:31:35.441Z,303.4798
2023-05-21T11:32:37.170Z,303.2281
2023-05-21T11:33:38.910Z,302.6374
2023-05-21T11:34:40.657Z,303.2283
2023-05-21T11:36:44.838Z,302.8213
2023-05-21T11:37:47.233Z,305.9330
2023-05-21T11:38:49.684Z,317.0006
2023-05-21T11:39:52.744Z,316.7281
2023-05-21T11:40:52.862Z,311.0551
2023-05-21T11:41:53.409Z,303.9055
2023-05-21T11:44:57.199Z,304.1374
2023-05-21T11:49:43.362Z,341.7918
2023-05-21T11:50:44.248Z,63.4859
2023-05-21T11:51:46.206Z,81.2727
2023-05-21T11:52:48.871Z,80.1363
2023-05-21T11:53:51.512Z,73.1359
2023-05-21T11:54:53.344Z,66.6818
2023-05-21T11:55:55.278Z,56.5838
2023-05-21T11:56:57.272Z,54.9545
2023-05-21T11:57:59.682Z,42.5545
2023-05-21T11:59:00.629Z,11.3306
2023-05-21T12:00:00.835Z,7.4286
2023-05-21T12:01:03.672Z,8.9997
2023-05-21T12:02:06.262Z,9.0907
2023-05-21T12:03:08.993Z,8.7727
2023-05-21T12:04:10.852Z,332.1923
2023-05-21T12:05:13.338Z,200.9549
2023-05-21T12:07:17.659Z,214.4653
2023-05-21T12:12:24.204Z,134.9095
2023-05-21T12:13:26.572Z,150.3355
2023-05-21T12:18:35.482Z,30.2423
2023-05-21T12:20:37.316Z,32.6364
2023-05-21T12:22:38.493Z,43.8115
2023-05-21T12:25:44.153Z,118.5000
2023-05-21T12:26:46.156Z,125.5323
2023-05-21T12:27:48.106Z,81.9159
2023-05-21T12:28:48.186Z,0.0128
2023-05-21T12:29:50.016Z,328.1371
2023-05-21T12:30:52.304Z,349.3153
2023-05-21T12:31:54.265Z,307.0562
2023-05-21T12:32:57.203Z,339.2859
2023-05-21T12:33:59.598Z,339.2736
2023-05-21T12:35:02.232Z,339.7280
2023-05-21T12:36:04.762Z,348.1994
2023-05-21T12:37:07.171Z,323.8375
2023-05-21T12:43:15.219Z,275.9603
2023-05-21T12:44:17.231Z,262.0859
2023-05-21T12:45:19.242Z,263.9057
2023-05-21T12:46:21.763Z,203.2137
2023-05-21T12:47:24.368Z,135.5914
2023-05-21T12:48:26.946Z,130.5863
2023-05-21T12:49:29.857Z,89.5007
2023-05-21T12:50:30.540Z,74.3190
2023-05-21T12:51:32.981Z,54.6364
2023-05-21T12:52:34.796Z,54.4545
2023-05-21T12:53:36.555Z,54.6364
2023-05-21T12:54:39.688Z,54.4545
2023-05-21T12:58:44.769Z,311.8174
2023-05-21T12:59:47.124Z,322.4557
2023-05-21T13:00:49.499Z,323.5916
2023-05-21T13:01:52.143Z,322.6827
2023-05-21T13:02:54.878Z,344.5799
2023-05-21T13:03:57.638Z,8.1831
2023-05-21T13:04:57.229Z,357.8724
2023-05-21T13:06:00.045Z,342.6516
2023-05-21T13:07:04.849Z,339.5418
2023-05-21T13:08:04.836Z,325.5547
2023-05-21T13:09:06.556Z,339.0009
2023-05-21T13:10:08.324Z,331.3604
2023-05-21T13:11:10.964Z,345.4031
2023-05-21T13:12:12.835Z,325.0053
2023-05-21T13:13:14.612Z,331.2357
2023-05-21T13:14:16.453Z,49.2273
2023-05-21T13:15:18.879Z,16.1855
2023-05-21T13:16:21.648Z,323.4113
2023-05-21T13:24:35.091Z,307.9731
2023-05-21T13:26:36.661Z,35.5455
2023-05-21T13:27:39.177Z,314.0912
2023-05-21T13:28:42.673Z,323.3814
2023-05-21T13:29:42.516Z,320.7181
2023-05-21T13:30:45.019Z,312.2734
2023-05-21T13:31:47.533Z,11.7499
2023-05-21T13:32:49.472Z,83.5311
2023-05-21T13:33:51.454Z,351.3070
2023-05-21T13:35:55.851Z,336.4556
2023-05-21T13:36:58.452Z,350.2423
2023-05-21T13:38:01.054Z,78.2727
2023-05-21T13:39:03.449Z,78.3636
2023-05-21T13:40:05.273Z,78.7272
2023-05-21T13:41:07.688Z,67.3636
2023-05-21T13:42:10.278Z,42.8129
2023-05-21T13:43:12.866Z,358.7068
2023-05-21T13:44:15.374Z,333.9627
2023-05-21T13:45:17.177Z,316.7549
2023-05-21T13:46:19.048Z,306.9099
2023-05-21T13:47:21.374Z,34.8293
2023-05-21T13:48:23.875Z,29.3382
2023-05-21T13:49:26.373Z,330.8821
2023-05-21T13:51:38.806Z,6.9615
2023-05-21T13:52:30.463Z,56.7564
2023-05-21T13:53:32.942Z,48.4545
2023-05-21T13:54:33.721Z,37.7482
2023-05-21T13:55:33.530Z,34.7619
2023-05-21T13:56:35.277Z,35.0000
2023-05-21T13:57:37.959Z,34.5001
2023-05-21T13:58:39.790Z,36.6487
2023-05-21T14:00:44.006Z,89.5000
2023-05-21T14:01:44.535Z,89.6667
2023-05-21T14:02:44.314Z,89.5714
2023-05-21T14:03:46.880Z,90.7276
2023-05-21T14:04:49.559Z,83.1446
2023-05-21T14:05:51.534Z,0.6818
2023-05-21T14:06:53.348Z,67.6242
2023-05-21T14:07:55.935Z,87.9091
2023-05-21T14:10:59.491Z,77.9537
2023-05-21T14:12:01.731Z,80.4918
2023-05-21T14:13:15.370Z,89.5000
2023-05-21T14:14:04.434Z,89.7368
2023-05-21T14:15:06.975Z,300.6182
2023-05-21T14:16:08.810Z,310.6840
2023-05-21T14:18:11.668Z,341.4022
2023-05-21T14:19:15.100Z,333.5561
2023-05-21T14:28:28.786Z,52.0774
2023-05-21T14:29:31.265Z,87.9091
2023-05-21T14:30:33.615Z,88.1364
2023-05-21T14:31:36.108Z,96.3688
2023-05-21T14:33:39.562Z,359.5588
2023-05-21T14:34:41.352Z,0.0000
2023-05-21T14:35:44.404Z,9.2255
2023-05-21T14:39:48.437Z,36.9091
2023-05-21T14:40:51.093Z,64.4881
2023-05-21T14:41:53.751Z,112.4230
2023-05-21T14:42:56.089Z,115.5459
2023-05-21T14:43:58.497Z,116.0913
2023-05-21T14:45:16.816Z,115.9095
2023-05-21T14:47:05.956Z,36.2697
2023-05-21T14:48:08.593Z,50.0058
2023-05-21T14:49:11.532Z,76.7727
2023-05-21T14:55:21.532Z,43.8636
2023-05-21T14:56:23.981Z,43.7273
2023-05-21T14:57:26.456Z,47.4091
2023-05-21T14:59:28.742Z,38.9545
2023-05-21T15:00:32.028Z,38.6818
2023-05-21T15:08:45.557Z,39.9091
2023-05-21T15:12:53.609Z,39.7273
2023-05-21T15:15:57.189Z,39.8636
2023-05-21T15:16:59.679Z,39.8182
2023-05-21T15:18:02.364Z,39.8182
2023-05-21T15:20:04.612Z,0.0000
2023-05-21T15:21:07.082Z,39.6818
2023-05-21T15:22:09.547Z,40.0909
2023-05-21T15:23:17.290Z,39.6364
2023-05-21T15:24:14.171Z,40.0500
2023-05-21T15:25:18.316Z,39.7727
2023-05-21T15:26:17.981Z,39.7619
2023-05-21T15:27:20.941Z,39.8182
2023-05-21T15:29:22.515Z,39.7273
2023-05-21T15:30:25.038Z,39.8636
2023-05-21T15:31:27.131Z,39.7727
2023-05-21T15:32:29.152Z,39.1364
2023-05-21T15:33:31.677Z,38.0454
2023-05-21T15:34:33.358Z,38.1000
2023-05-21T15:35:35.349Z,26.9867
2023-05-21T15:36:37.378Z,322.2079
2023-05-21T15:37:39.231Z,312.7282
2023-05-21T15:38:41.564Z,312.7734
2023-05-21T15:39:44.137Z,320.4836
2023-05-21T15:42:48.530Z,44.8636
2023-05-21T15:43:50.989Z,44.7727
2023-05-21T15:44:52.861Z,36.1913
2023-05-21T15:46:56.651Z,330.6624
2023-05-21T15:47:58.472Z,303.6013
2023-05-21T15:49:01.601Z,333.3271
2023-05-21T15:51:02.280Z,9.7852
2023-05-21T15:52:04.408Z,0.7727
2023-05-21T15:53:06.277Z,0.6818
2023-05-21T15:54:19.872Z,0.6818
2023-05-21T15:55:11.161Z,48.3567
2023-05-21T15:56:12.950Z,322.7410
2023-05-21T15:57:14.800Z,314.9130
2023-05-21T15:58:39.853Z,315.0905
2023-05-21T16:00:21.612Z,334.5011
2023-05-21T16:01:23.679Z,333.5466
2023-05-21T16:02:25.601Z,327.1801
2023-05-21T16:03:27.478Z,319.0130
2023-05-21T16:04:29.834Z,325.1828
2023-05-21T16:05:31.609Z,356.2663
2023-05-21T16:06:33.438Z,0.9545
2023-05-21T16:07:37.967Z,1.0000
2023-05-21T16:08:37.999Z,323.1880
2023-05-21T16:09:39.776Z,316.7726
2023-05-21T16:10:41.643Z,322.8192
2023-05-21T16:11:44.041Z,299.1069
2023-05-21T16:12:46.084Z,304.2736
2023-05-21T16:13:48.598Z,308.7286
2023-05-21T16:14:51.048Z,309.9556
2023-05-21T16:15:52.859Z,325.3027
2023-05-21T16:16:55.449Z,69.0697
2023-05-21T16:17:58.075Z,48.4450
2023-05-21T16:19:00.517Z,56.8636
2023-05-21T16:20:03.181Z,51.7726
2023-05-21T16:21:05.093Z,51.5000
2023-05-21T16:22:07.864Z,51.5000
2023-05-21T16:23:08.274Z,51.5238
2023-05-21T16:24:10.079Z,51.3182
2023-05-21T16:25:11.891Z,51.1364
2023-05-21T16:26:13.968Z,51.6363
2023-05-21T16:27:16.971Z,51.3636
2023-05-21T16:29:18.209Z,19.7014
2023-05-21T16:30:20.635Z,11.0000
2023-05-21T16:31:23.346Z,10.5909
2023-05-21T16:32:25.177Z,9.1364
2023-05-21T16:33:27.038Z,9.3636
2023-05-21T16:35:31.188Z,9.6364
2023-05-21T16:36:32.991Z,9.5455
2023-05-21T16:37:35.491Z,9.3636